Time;durP1;ratioP1;P1;durP2;ratioP2;P2;SDS_P1;SDS_P2;PMS_P1;PMS_P2;Temp;Humidity;BMP_temperature;BMP_pressure;BME280_temperature;BME280_humidity;BME280_pressure;Samples;Min_cycle;Max_cycle;Signal;HPM_P1;HPM_P2
2021/08/15 00:00:04;;;;;;;47.95;34.97;;;;;;;;;;5018386;28;20033;-54
2021/08/15 00:06:03;;;;;;;46.53;33.85;;;;;;;;;;5018280;28;20172;-54
2021/08/15 00:08:29;;;;;;;45.38;34.95;;;;;;;;;;5017974;28;20535;-53
2021/08/15 00:10:55;;;;;;;43.65;34.55;;;;;;;;;;5018083;28;20049;-55
2021/08/15 00:13:21;;;;;;;50.65;36.60;;;;;;;;;;5017694;28;20728;-54
2021/08/15 00:15:47;;;;;;;46.75;35.28;;;;;;;;;;5017875;28;20037;-55
2021/08/15 00:18:13;;;;;;;47.35;35.60;;;;;;;;;;5017630;28;20506;-54
2021/08/15 00:20:39;;;;;;;48.13;35.95;;;;;;;;;;5017529;28;20044;-55
2021/08/15 00:23:04;;;;;;;47.67;35.55;;;;;;;;;;5016246;28;20084;-55
2021/08/15 00:25:30;;;;;;;49.17;34.53;;;;;;;;;;5016664;28;20087;-54
2021/08/15 00:27:56;;;;;;;49.35;34.65;;;;;;;;;;5018610;28;20432;-55
2021/08/15 00:30:22;;;;;;;45.00;34.58;;;;;;;;;;5014865;28;20142;-54
2021/08/15 00:32:48;;;;;;;52.60;36.45;;;;;;;;;;5018116;28;20119;-55
2021/08/15 00:35:14;;;;;;;48.45;36.63;;;;;;;;;;5018675;28;20045;-55
2021/08/15 00:37:40;;;;;;;53.33;36.78;;;;;;;;;;5018153;28;20045;-54
2021/08/15 00:40:06;;;;;;;57.30;40.42;;;;;;;;;;5016916;28;20053;-55
2021/08/15 00:42:33;;;;;;;60.45;41.75;;;;;;;;;;5017152;28;20045;-54
2021/08/15 00:44:59;;;;;;;59.97;44.05;;;;;;;;;;5018722;28;20127;-54
2021/08/15 00:47:24;;;;;;;65.10;44.15;;;;;;;;;;5017368;28;20450;-55
2021/08/15 00:49:50;;;;;;;65.05;45.28;;;;;;;;;;5017768;28;20076;-53
2021/08/15 00:52:16;;;;;;;73.38;51.67;;;;;;;;;;5016917;28;20457;-55
2021/08/15 00:54:42;;;;;;;78.47;55.53;;;;;;;;;;5017001;28;20042;-53
2021/08/15 00:57:08;;;;;;;90.78;59.22;;;;;;;;;;5018749;28;20041;-54
2021/08/15 00:59:40;;;;;;;84.22;60.00;;;;;;;;;;5015705;28;20080;-53
2021/08/15 01:02:09;;;;;;;85.53;62.80;;;;;;;;;;5018115;28;20048;-55
2021/08/15 01:04:37;;;;;;;90.97;65.07;;;;;;;;;;5016683;28;20041;-54
2021/08/15 01:07:04;;;;;;;86.60;63.50;;;;;;;;;;5016385;28;21947;-54
2021/08/15 01:09:31;;;;;;;89.65;64.28;;;;;;;;;;5016430;28;20745;-54
2021/08/15 01:11:57;;;;;;;96.97;65.85;;;;;;;;;;5015670;28;20038;-53
2021/08/15 01:14:23;;;;;;;92.22;65.50;;;;;;;;;;5015882;28;20539;-55
2021/08/15 01:16:48;;;;;;;92.13;64.70;;;;;;;;;;5016383;28;20060;-52
2021/08/15 01:19:15;;;;;;;96.03;66.40;;;;;;;;;;5017249;28;20049;-52
2021/08/15 01:21:47;;;;;;;91.55;65.60;;;;;;;;;;5015027;28;20180;-53
2021/08/15 01:24:13;;;;;;;93.60;65.00;;;;;;;;;;5016512;28;20088;-54
2021/08/15 01:26:42;;;;;;;92.07;65.53;;;;;;;;;;5013879;28;20042;-53
2021/08/15 01:29:08;;;;;;;96.57;67.40;;;;;;;;;;5016230;28;20046;-55
2021/08/15 01:31:34;;;;;;;92.15;65.47;;;;;;;;;;5013788;28;20063;-53
2021/08/15 01:34:00;;;;;;;98.07;66.32;;;;;;;;;;5016031;28;20036;-53
2021/08/15 01:36:28;;;;;;;95.25;62.05;;;;;;;;;;5015309;28;20382;-54
2021/08/15 01:38:54;;;;;;;88.32;62.95;;;;;;;;;;5014982;28;20057;-54
2021/08/15 01:41:19;;;;;;;90.25;62.25;;;;;;;;;;5015195;28;20480;-51
2021/08/15 01:43:55;;;;;;;85.32;60.63;;;;;;;;;;5015619;28;20037;-55
2021/08/15 01:46:22;;;;;;;84.68;60.15;;;;;;;;;;5015882;28;20041;-56
2021/08/15 01:48:48;;;;;;;81.72;57.42;;;;;;;;;;5016799;28;20045;-54
2021/08/15 01:51:15;;;;;;;80.15;55.00;;;;;;;;;;5017735;28;20052;-53
2021/08/15 01:53:41;;;;;;;79.45;54.55;;;;;;;;;;5014829;28;20154;-52
2021/08/15 01:56:07;;;;;;;78.68;56.03;;;;;;;;;;5016045;28;20041;-53
2021/08/15 01:58:32;;;;;;;75.55;52.72;;;;;;;;;;5015637;28;20053;-52
2021/08/15 02:00:59;;;;;;;73.50;50.90;;;;;;;;;;5015167;28;20175;-53
2021/08/15 02:03:24;;;;;;;73.38;51.63;;;;;;;;;;5015162;28;20049;-54
2021/08/15 02:05:50;;;;;;;73.47;51.03;;;;;;;;;;5015198;28;20041;-53
2021/08/15 02:08:16;;;;;;;72.82;48.72;;;;;;;;;;5014545;28;20052;-52
2021/08/15 02:10:42;;;;;;;67.65;49.33;;;;;;;;;;5015687;28;20052;-52
2021/08/15 02:13:08;;;;;;;69.13;48.03;;;;;;;;;;5016369;28;20037;-54
2021/08/15 02:15:34;;;;;;;66.63;47.55;;;;;;;;;;5014770;28;20156;-55
2021/08/15 02:18:00;;;;;;;68.68;49.03;;;;;;;;;;5015386;28;20164;-55
2021/08/15 02:20:28;;;;;;;70.47;49.00;;;;;;;;;;5013285;28;20026;-56
2021/08/15 02:22:54;;;;;;;72.10;47.13;;;;;;;;;;5015760;28;20103;-55
2021/08/15 02:25:20;;;;;;;69.55;47.28;;;;;;;;;;5015635;28;20034;-57
2021/08/15 02:27:46;;;;;;;70.90;47.40;;;;;;;;;;5015385;28;20041;-55
2021/08/15 02:30:13;;;;;;;71.05;46.72;;;;;;;;;;5016604;28;20083;-55
2021/08/15 02:32:39;;;;;;;71.35;45.92;;;;;;;;;;5014159;28;20531;-55
2021/08/15 02:35:06;;;;;;;73.15;48.63;;;;;;;;;;5015732;28;20045;-55
2021/08/15 02:37:33;;;;;;;71.07;47.72;;;;;;;;;;5014677;28;20128;-55
2021/08/15 02:39:59;;;;;;;67.65;45.17;;;;;;;;;;5015432;28;20125;-54
2021/08/15 02:42:28;;;;;;;70.22;47.03;;;;;;;;;;5013657;28;20038;-54
2021/08/15 02:44:54;;;;;;;69.68;45.95;;;;;;;;;;5015549;28;20084;-55
2021/08/15 02:47:20;;;;;;;67.53;46.72;;;;;;;;;;5015816;28;20140;-55
2021/08/15 02:49:45;;;;;;;69.15;46.50;;;;;;;;;;5011810;28;20041;-57
2021/08/15 02:52:11;;;;;;;72.80;48.88;;;;;;;;;;5015443;28;20049;-55
2021/08/15 02:54:37;;;;;;;68.70;47.78;;;;;;;;;;5013239;28;20045;-56
2021/08/15 02:57:03;;;;;;;70.07;48.53;;;;;;;;;;5016932;28;20852;-56
2021/08/15 02:59:29;;;;;;;71.53;47.47;;;;;;;;;;5015497;28;20061;-56
2021/08/15 03:01:55;;;;;;;70.10;47.00;;;;;;;;;;5017961;28;20036;-56
2021/08/15 03:04:21;;;;;;;70.97;47.13;;;;;;;;;;5021131;28;20049;-56
2021/08/15 03:06:46;;;;;;;72.45;47.17;;;;;;;;;;5021119;28;20389;-56
2021/08/15 03:09:12;;;;;;;73.35;48.33;;;;;;;;;;5022391;28;20045;-54
2021/08/15 03:11:38;;;;;;;73.72;47.05;;;;;;;;;;5020356;28;20139;-56
2021/08/15 03:14:04;;;;;;;69.47;47.92;;;;;;;;;;5022141;28;20037;-56
2021/08/15 03:16:30;;;;;;;73.38;47.25;;;;;;;;;;5020062;28;20033;-55
2021/08/15 03:18:55;;;;;;;74.63;49.60;;;;;;;;;;5021745;28;20052;-56
2021/08/15 03:21:24;;;;;;;75.28;48.70;;;;;;;;;;5020220;28;21879;-55
2021/08/15 03:23:50;;;;;;;74.38;48.67;;;;;;;;;;5022215;28;20052;-56
2021/08/15 03:26:16;;;;;;;76.47;48.97;;;;;;;;;;5021133;28;21925;-55
2021/08/15 03:28:43;;;;;;;73.55;49.80;;;;;;;;;;5019236;28;20060;-55
2021/08/15 03:31:09;;;;;;;77.68;51.22;;;;;;;;;;5020884;28;20876;-55
2021/08/15 03:33:34;;;;;;;80.05;49.45;;;;;;;;;;5017893;28;20754;-53
2021/08/15 03:36:01;;;;;;;78.95;50.63;;;;;;;;;;5021152;28;20037;-56
2021/08/15 03:38:27;;;;;;;76.07;48.42;;;;;;;;;;5020145;28;20095;-56
2021/08/15 03:40:53;;;;;;;73.82;48.72;;;;;;;;;;5022015;28;20454;-56
2021/08/15 03:43:18;;;;;;;74.20;50.17;;;;;;;;;;5020469;28;20045;-53
2021/08/15 03:45:44;;;;;;;76.07;49.55;;;;;;;;;;5022693;28;20049;-56
2021/08/15 03:48:10;;;;;;;77.13;50.92;;;;;;;;;;5020662;28;20044;-56
2021/08/15 03:50:36;;;;;;;76.88;51.63;;;;;;;;;;5019659;28;20516;-56
2021/08/15 03:53:02;;;;;;;75.35;50.35;;;;;;;;;;5021693;28;20041;-56
2021/08/15 03:55:28;;;;;;;82.20;52.55;;;;;;;;;;5021278;28;20068;-55
2021/08/15 03:57:53;;;;;;;82.00;52.33;;;;;;;;;;5021818;28;20061;-53
2021/08/15 04:00:19;;;;;;;78.03;50.92;;;;;;;;;;5019455;28;20043;-53
2021/08/15 04:02:45;;;;;;;75.82;52.13;;;;;;;;;;5022591;28;20095;-56
2021/08/15 04:05:11;;;;;;;83.40;52.47;;;;;;;;;;5020901;28;20037;-56
2021/08/15 04:07:37;;;;;;;80.13;51.92;;;;;;;;;;5020032;28;20060;-55
2021/08/15 04:10:03;;;;;;;83.30;51.55;;;;;;;;;;5022052;28;20117;-56
2021/08/15 04:12:32;;;;;;;81.40;51.55;;;;;;;;;;5020654;28;20040;-56
2021/08/15 04:14:57;;;;;;;77.90;50.65;;;;;;;;;;5017163;28;20770;-56
2021/08/15 04:17:23;;;;;;;84.22;51.75;;;;;;;;;;5017276;28;20037;-56
2021/08/15 04:19:49;;;;;;;85.57;52.78;;;;;;;;;;5016233;28;20124;-56
2021/08/15 04:22:15;;;;;;;78.55;53.25;;;;;;;;;;5017475;28;20041;-55
2021/08/15 04:24:41;;;;;;;79.63;50.75;;;;;;;;;;5017267;28;20129;-56
2021/08/15 04:27:06;;;;;;;86.20;54.45;;;;;;;;;;5017855;28;20097;-54
2021/08/15 04:29:35;;;;;;;79.85;53.75;;;;;;;;;;5017778;28;20049;-56
2021/08/15 04:32:02;;;;;;;81.95;52.63;;;;;;;;;;5016668;28;20048;-57
2021/08/15 04:34:28;;;;;;;80.20;51.45;;;;;;;;;;5014905;28;20044;-55
2021/08/15 04:36:53;;;;;;;84.57;54.40;;;;;;;;;;5016043;28;20041;-54
2021/08/15 04:39:19;;;;;;;82.57;53.63;;;;;;;;;;5015385;28;20187;-56
2021/08/15 04:41:46;;;;;;;83.20;53.28;;;;;;;;;;5015885;28;20128;-56
2021/08/15 04:44:11;;;;;;;77.10;51.03;;;;;;;;;;5016418;28;20057;-55
2021/08/15 04:46:37;;;;;;;80.13;51.17;;;;;;;;;;5012509;28;20065;-55
2021/08/15 04:49:03;;;;;;;87.35;53.67;;;;;;;;;;5012712;28;20391;-56
2021/08/15 04:51:29;;;;;;;87.32;56.40;;;;;;;;;;5007805;28;20064;-54
2021/08/15 04:53:55;;;;;;;79.45;53.13;;;;;;;;;;5013910;28;20519;-56
2021/08/15 04:56:21;;;;;;;85.00;51.72;;;;;;;;;;5010514;28;20045;-56
2021/08/15 04:58:47;;;;;;;88.45;55.58;;;;;;;;;;5016547;28;20060;-55
2021/08/15 05:01:12;;;;;;;84.53;55.10;;;;;;;;;;5017084;28;20034;-54
2021/08/15 05:03:38;;;;;;;89.18;55.60;;;;;;;;;;5017998;28;20395;-54
2021/08/15 05:06:04;;;;;;;86.68;56.80;;;;;;;;;;5017431;28;20863;-55
2021/08/15 05:08:30;;;;;;;89.35;56.40;;;;;;;;;;5018001;28;20518;-55
2021/08/15 05:10:58;;;;;;;96.05;58.13;;;;;;;;;;5016495;28;20095;-53
2021/08/15 05:13:27;;;;;;;78.20;53.88;;;;;;;;;;5017342;28;20512;-56
2021/08/15 05:15:53;;;;;;;85.95;57.00;;;;;;;;;;5014179;28;20517;-51
2021/08/15 05:18:19;;;;;;;84.93;56.22;;;;;;;;;;5012784;28;20163;-55
2021/08/15 05:20:45;;;;;;;87.07;55.95;;;;;;;;;;5015045;28;20049;-55
2021/08/15 05:23:12;;;;;;;90.18;55.80;;;;;;;;;;5013802;28;20044;-55
2021/08/15 05:25:38;;;;;;;87.30;55.15;;;;;;;;;;5014685;28;20975;-53
2021/08/15 05:28:04;;;;;;;90.35;57.67;;;;;;;;;;5013979;28;20036;-54
2021/08/15 05:30:31;;;;;;;93.25;57.53;;;;;;;;;;5013204;28;20049;-54
2021/08/15 05:32:56;;;;;;;91.78;58.25;;;;;;;;;;5014820;28;20115;-53
2021/08/15 05:35:22;;;;;;;91.20;58.00;;;;;;;;;;5015871;28;20473;-53
2021/08/15 05:37:48;;;;;;;91.55;58.75;;;;;;;;;;5014127;28;20045;-55
2021/08/15 05:40:14;;;;;;;88.40;56.35;;;;;;;;;;5014463;28;20777;-53
2021/08/15 05:42:40;;;;;;;91.78;57.35;;;;;;;;;;5012451;28;20083;-55
2021/08/15 05:45:06;;;;;;;89.40;57.20;;;;;;;;;;5014397;28;20054;-54
2021/08/15 05:47:32;;;;;;;86.82;56.25;;;;;;;;;;5013240;28;20115;-53
2021/08/15 05:49:58;;;;;;;99.88;56.35;;;;;;;;;;5014258;28;20103;-53
2021/08/15 05:52:27;;;;;;;91.78;56.10;;;;;;;;;;5012264;28;20045;-54
2021/08/15 05:54:53;;;;;;;85.78;55.50;;;;;;;;;;5013910;28;20041;-51
2021/08/15 05:57:19;;;;;;;90.03;57.40;;;;;;;;;;5013487;28;20038;-52
2021/08/15 05:59:44;;;;;;;85.53;57.05;;;;;;;;;;5013956;28;20041;-52
2021/08/15 06:02:10;;;;;;;92.40;58.13;;;;;;;;;;5013522;28;20156;-52
2021/08/15 06:04:36;;;;;;;97.95;62.50;;;;;;;;;;5014184;28;20045;-53
2021/08/15 06:07:02;;;;;;;92.40;59.00;;;;;;;;;;5014907;28;20602;-53
2021/08/15 06:09:28;;;;;;;91.78;57.17;;;;;;;;;;5013684;28;20037;-52
2021/08/15 06:11:54;;;;;;;99.50;59.28;;;;;;;;;;5012358;28;20797;-53
2021/08/15 06:14:20;;;;;;;96.30;59.30;;;;;;;;;;5014511;28;20049;-53
2021/08/15 06:16:46;;;;;;;93.20;61.05;;;;;;;;;;5014333;28;20145;-51
2021/08/15 06:19:12;;;;;;;91.72;54.83;;;;;;;;;;5014028;28;20196;-52
2021/08/15 06:21:38;;;;;;;81.30;45.92;;;;;;;;;;5012478;28;20033;-49
2021/08/15 06:24:04;;;;;;;81.18;46.95;;;;;;;;;;5014075;28;20049;-53
2021/08/15 06:26:30;;;;;;;75.95;45.08;;;;;;;;;;5012439;28;20559;-52
2021/08/15 06:28:56;;;;;;;61.42;41.22;;;;;;;;;;5013309;28;20045;-51
2021/08/15 06:31:22;;;;;;;69.85;40.53;;;;;;;;;;5012863;28;20395;-53
2021/08/15 06:33:49;;;;;;;63.83;38.72;;;;;;;;;;5012984;28;20493;-53
2021/08/15 06:36:14;;;;;;;64.15;39.00;;;;;;;;;;5013712;28;20110;-51
2021/08/15 06:38:40;;;;;;;63.85;37.70;;;;;;;;;;5012448;28;20041;-50
2021/08/15 06:41:07;;;;;;;60.50;36.67;;;;;;;;;;5014277;28;20038;-53
2021/08/15 06:43:33;;;;;;;59.53;35.75;;;;;;;;;;5013366;28;20057;-51
2021/08/15 06:45:58;;;;;;;54.33;34.75;;;;;;;;;;5014568;28;20052;-52
2021/08/15 06:48:24;;;;;;;51.08;35.08;;;;;;;;;;5012827;28;20847;-54
2021/08/15 06:50:57;;;;;;;52.85;34.80;;;;;;;;;;5013841;28;20111;-53
2021/08/15 06:53:23;;;;;;;55.67;34.70;;;;;;;;;;5012279;28;20049;-53
2021/08/15 06:55:49;;;;;;;50.97;33.55;;;;;;;;;;5014120;28;20041;-54
2021/08/15 06:58:16;;;;;;;56.08;35.05;;;;;;;;;;5014327;28;20135;-53
2021/08/15 07:00:41;;;;;;;52.70;34.17;;;;;;;;;;5011976;28;20077;-53
2021/08/15 07:03:07;;;;;;;48.65;33.78;;;;;;;;;;5013197;28;20132;-54
2021/08/15 07:05:33;;;;;;;51.15;34.35;;;;;;;;;;5013670;28;20057;-51
2021/08/15 07:07:59;;;;;;;57.60;32.55;;;;;;;;;;5014312;28;20131;-52
2021/08/15 07:10:25;;;;;;;50.45;32.30;;;;;;;;;;5013912;28;20037;-53
2021/08/15 07:12:55;;;;;;;49.97;32.60;;;;;;;;;;5013388;28;20049;-54
2021/08/15 07:15:22;;;;;;;56.85;33.15;;;;;;;;;;5011451;28;20087;-53
2021/08/15 07:17:48;;;;;;;53.45;32.85;;;;;;;;;;5014278;28;20053;-53
2021/08/15 07:20:14;;;;;;;52.13;31.55;;;;;;;;;;5014316;28;20052;-53
2021/08/15 07:22:40;;;;;;;54.70;34.10;;;;;;;;;;5012123;28;20037;-53
2021/08/15 07:25:06;;;;;;;51.47;31.80;;;;;;;;;;5014165;28;20041;-54
2021/08/15 07:27:32;;;;;;;50.50;31.55;;;;;;;;;;5013851;28;20042;-53
2021/08/15 07:29:58;;;;;;;60.08;33.60;;;;;;;;;;5013031;28;20041;-52
2021/08/15 07:32:24;;;;;;;54.88;31.98;;;;;;;;;;5012741;28;20385;-52
2021/08/15 07:34:49;;;;;;;48.90;30.77;;;;;;;;;;5015059;28;20045;-53
2021/08/15 07:37:15;;;;;;;50.35;32.58;;;;;;;;;;5014508;28;20079;-52
2021/08/15 07:39:41;;;;;;;46.42;31.75;;;;;;;;;;5014335;28;20064;-53
2021/08/15 07:42:07;;;;;;;50.42;32.22;;;;;;;;;;5013070;28;20036;-52
2021/08/15 07:44:33;;;;;;;52.67;32.80;;;;;;;;;;5013398;28;20818;-54
2021/08/15 07:46:58;;;;;;;53.47;32.83;;;;;;;;;;5015287;28;20033;-54
2021/08/15 07:49:24;;;;;;;54.40;32.67;;;;;;;;;;5017476;28;20029;-52
2021/08/15 07:51:50;;;;;;;57.03;34.38;;;;;;;;;;5017575;28;20128;-51
2021/08/15 07:54:16;;;;;;;56.22;32.90;;;;;;;;;;5018041;28;20041;-51
2021/08/15 07:56:42;;;;;;;50.45;33.10;;;;;;;;;;5018355;28;20049;-54
2021/08/15 07:59:10;;;;;;;50.85;32.88;;;;;;;;;;5018060;28;20107;-54
2021/08/15 08:01:36;;;;;;;55.05;32.63;;;;;;;;;;5016552;28;20083;-54
2021/08/15 08:04:02;;;;;;;55.20;34.67;;;;;;;;;;5017569;28;20033;-55
2021/08/15 08:06:27;;;;;;;54.40;32.95;;;;;;;;;;5017256;28;20080;-54
2021/08/15 08:08:53;;;;;;;55.88;33.03;;;;;;;;;;5018681;28;20041;-54
2021/08/15 08:16:29;;;;;;;55.60;33.75;;;;;;;;;;5052092;23;20057;-51
2021/08/15 08:18:55;;;;;;;54.22;32.92;;;;;;;;;;4989986;28;20101;-54
2021/08/15 08:21:21;;;;;;;54.05;31.15;;;;;;;;;;4991431;28;20037;-51
2021/08/15 08:23:46;;;;;;;51.28;31.92;;;;;;;;;;4999729;28;20038;-50
2021/08/15 08:26:12;;;;;;;52.58;31.90;;;;;;;;;;5009766;28;20042;-54
2021/08/15 08:28:38;;;;;;;49.95;30.92;;;;;;;;;;5009694;28;20092;-53
2021/08/15 08:31:04;;;;;;;46.45;30.40;;;;;;;;;;5006262;28;20121;-52
2021/08/15 08:33:30;;;;;;;52.65;31.85;;;;;;;;;;4989186;28;20050;-51
2021/08/15 08:35:57;;;;;;;47.40;30.75;;;;;;;;;;5003069;28;20045;-53
2021/08/15 08:38:23;;;;;;;47.75;30.42;;;;;;;;;;4993749;28;20046;-54
2021/08/15 08:40:49;;;;;;;49.28;30.45;;;;;;;;;;5001667;28;20049;-54
2021/08/15 08:43:15;;;;;;;48.90;29.40;;;;;;;;;;5001608;28;20398;-55
2021/08/15 08:45:45;;;;;;;54.95;31.70;;;;;;;;;;4992475;28;20047;-55
2021/08/15 08:48:11;;;;;;;50.35;31.00;;;;;;;;;;4995107;28;20096;-53
2021/08/15 08:50:37;;;;;;;52.25;30.00;;;;;;;;;;5000606;28;20497;-53
2021/08/15 08:53:03;;;;;;;48.67;29.55;;;;;;;;;;5012287;28;20537;-52
2021/08/15 08:55:28;;;;;;;47.08;29.45;;;;;;;;;;5011722;28;20038;-53
2021/08/15 08:57:54;;;;;;;56.72;32.25;;;;;;;;;;5013380;28;20500;-51
2021/08/15 09:00:20;;;;;;;55.58;31.02;;;;;;;;;;5010325;28;20040;-51
2021/08/15 09:02:46;;;;;;;47.72;29.95;;;;;;;;;;5011256;28;20045;-54
2021/08/15 09:05:12;;;;;;;51.25;30.38;;;;;;;;;;5016808;28;20037;-53
2021/08/15 09:07:39;;;;;;;46.55;29.15;;;;;;;;;;5020192;28;20037;-54
2021/08/15 09:10:08;;;;;;;43.78;28.85;;;;;;;;;;5021080;28;20764;-54
2021/08/15 09:12:36;;;;;;;49.28;30.00;;;;;;;;;;5017124;28;20037;-55
2021/08/15 09:15:06;;;;;;;56.50;30.90;;;;;;;;;;5019002;28;20057;-54
2021/08/15 09:17:36;;;;;;;51.53;28.05;;;;;;;;;;5020571;28;20828;-54
2021/08/15 09:20:02;;;;;;;53.25;29.77;;;;;;;;;;5020024;28;20739;-54
2021/08/15 09:22:30;;;;;;;46.85;29.23;;;;;;;;;;5019979;28;20037;-53
2021/08/15 09:25:04;;;;;;;57.13;29.75;;;;;;;;;;5020301;28;20037;-51
2021/08/15 09:27:34;;;;;;;49.30;30.10;;;;;;;;;;5020602;28;20073;-55
2021/08/15 09:30:06;;;;;;;44.67;29.40;;;;;;;;;;5020321;28;20060;-52
2021/08/15 09:32:32;;;;;;;48.47;28.60;;;;;;;;;;5018667;28;20048;-52
2021/08/15 09:34:58;;;;;;;45.45;28.63;;;;;;;;;;5018110;28;20133;-54
2021/08/15 09:37:28;;;;;;;52.47;29.70;;;;;;;;;;5015892;28;20050;-54
2021/08/15 09:39:54;;;;;;;53.47;28.92;;;;;;;;;;5018985;28;20041;-54
2021/08/15 09:42:38;;;;;;;48.88;29.30;;;;;;;;;;5017725;28;20056;-52
2021/08/15 09:45:04;;;;;;;44.50;29.83;;;;;;;;;;5019412;28;20061;-54
2021/08/15 09:47:30;;;;;;;52.80;30.10;;;;;;;;;;5032461;28;20046;-51
2021/08/15 09:49:55;;;;;;;50.40;29.17;;;;;;;;;;5018067;28;20056;-51
2021/08/15 09:52:36;;;;;;;47.88;28.23;;;;;;;;;;5014643;28;20834;-54
2021/08/15 09:55:02;;;;;;;50.13;29.75;;;;;;;;;;5019013;28;20137;-54
2021/08/15 09:57:29;;;;;;;49.78;29.30;;;;;;;;;;5016814;28;20034;-51
2021/08/15 09:59:55;;;;;;;48.10;29.13;;;;;;;;;;5020123;28;20050;-52
2021/08/15 10:02:21;;;;;;;46.78;29.00;;;;;;;;;;5016577;28;20381;-54
2021/08/15 10:04:47;;;;;;;48.85;28.90;;;;;;;;;;5019778;28;20596;-54
2021/08/15 10:07:13;;;;;;;45.38;28.70;;;;;;;;;;5010683;28;20037;-51
2021/08/15 10:09:39;;;;;;;49.10;28.65;;;;;;;;;;4997662;28;20030;-54
2021/08/15 10:12:05;;;;;;;46.92;28.25;;;;;;;;;;4993028;28;20045;-55
2021/08/15 10:14:31;;;;;;;51.45;29.45;;;;;;;;;;4994441;28;20942;-53
2021/08/15 10:16:59;;;;;;;51.55;29.58;;;;;;;;;;4993308;28;20137;-52
2021/08/15 10:19:43;;;;;;;56.58;27.98;;;;;;;;;;4994542;28;20053;-51
2021/08/15 10:22:09;;;;;;;50.08;29.27;;;;;;;;;;5001003;28;20736;-53
2021/08/15 10:24:42;;;;;;;44.30;27.83;;;;;;;;;;5003795;28;20485;-53
2021/08/15 10:27:09;;;;;;;47.88;28.63;;;;;;;;;;4995082;28;20046;-52
2021/08/15 10:29:40;;;;;;;50.95;29.50;;;;;;;;;;4992537;28;20090;-53
2021/08/15 10:32:14;;;;;;;48.50;28.20;;;;;;;;;;4992809;28;20046;-54
2021/08/15 10:34:49;;;;;;;49.63;28.35;;;;;;;;;;4994184;28;20034;-51
2021/08/15 10:37:27;;;;;;;45.58;28.25;;;;;;;;;;4993250;28;20097;-54
2021/08/15 10:40:02;;;;;;;45.30;28.75;;;;;;;;;;5000034;28;20141;-54
2021/08/15 10:42:43;;;;;;;47.50;27.63;;;;;;;;;;4995243;28;20038;-52
2021/08/15 10:45:24;;;;;;;50.55;28.30;;;;;;;;;;5003411;28;20402;-54
2021/08/15 10:48:06;;;;;;;46.03;27.45;;;;;;;;;;5007213;28;20178;-53
2021/08/15 10:50:44;;;;;;;45.00;27.45;;;;;;;;;;5014161;28;20080;-53
2021/08/15 10:53:28;;;;;;;45.85;27.73;;;;;;;;;;5018143;28;20038;-54
2021/08/15 10:56:04;;;;;;;44.10;27.42;;;;;;;;;;5004758;28;20049;-54
2021/08/15 10:58:37;;;;;;;47.92;27.75;;;;;;;;;;4996617;28;20829;-54
2021/08/15 11:01:04;;;;;;;49.00;27.98;;;;;;;;;;4995378;28;20546;-54
2021/08/15 11:03:31;;;;;;;50.47;27.92;;;;;;;;;;4993473;28;20066;-54
2021/08/15 11:05:58;;;;;;;42.25;26.88;;;;;;;;;;5002344;28;20081;-54
2021/08/15 11:08:33;;;;;;;43.83;26.50;;;;;;;;;;5014448;28;20052;-54
2021/08/15 11:11:06;;;;;;;45.78;27.73;;;;;;;;;;5012550;28;20120;-54
2021/08/15 11:13:31;;;;;;;;;;;;;;;;;;5002419;28;20046;-54
2021/08/15 11:16:16;;;;;;;43.85;25.65;;;;;;;;;;5000591;28;19917;-54
2021/08/15 11:19:01;;;;;;;43.17;25.35;;;;;;;;;;4994832;28;20139;-52
2021/08/15 11:21:45;;;;;;;48.70;27.63;;;;;;;;;;5000315;28;20030;-53
2021/08/15 11:24:11;;;;;;;40.80;25.30;;;;;;;;;;5000771;28;20418;-54
2021/08/15 11:26:37;;;;;;;40.80;26.27;;;;;;;;;;5000315;28;20035;-51
2021/08/15 11:29:08;;;;;;;44.17;26.50;;;;;;;;;;5005125;28;20048;-50
2021/08/15 11:31:37;;;;;;;44.20;27.30;;;;;;;;;;5018117;28;20073;-54
2021/08/15 11:34:06;;;;;;;41.92;26.40;;;;;;;;;;5004487;28;20056;-52
2021/08/15 11:36:32;;;;;;;45.92;26.98;;;;;;;;;;5004855;28;20504;-51
2021/08/15 11:38:58;;;;;;;41.90;25.63;;;;;;;;;;5006173;28;20060;-54
2021/08/15 11:41:24;;;;;;;50.08;27.13;;;;;;;;;;5007363;28;20398;-51
2021/08/15 11:43:56;;;;;;;42.90;26.60;;;;;;;;;;5019238;28;20106;-52
2021/08/15 11:46:22;;;;;;;43.25;25.95;;;;;;;;;;5018579;28;20037;-54
2021/08/15 11:48:48;;;;;;;49.45;26.52;;;;;;;;;;5019424;28;20052;-54
2021/08/15 11:51:14;;;;;;;42.05;26.30;;;;;;;;;;5018741;28;20468;-51
2021/08/15 11:53:43;;;;;;;48.00;28.15;;;;;;;;;;5019225;28;20661;-54
2021/08/15 11:56:14;;;;;;;43.78;26.27;;;;;;;;;;5019315;28;20083;-54
2021/08/15 11:58:58;;;;;;;45.70;27.27;;;;;;;;;;5016591;28;20111;-54
2021/08/15 12:01:25;;;;;;;45.17;25.88;;;;;;;;;;5018380;28;20038;-52
2021/08/15 12:04:01;;;;;;;48.55;27.98;;;;;;;;;;5019826;28;20033;-51
2021/08/15 12:06:27;;;;;;;47.75;27.13;;;;;;;;;;5018352;28;20134;-53
2021/08/15 12:08:53;;;;;;;42.72;26.55;;;;;;;;;;5018052;28;20083;-53
2021/08/15 12:11:32;;;;;;;45.08;27.27;;;;;;;;;;5018086;28;20057;-54
2021/08/15 12:14:20;;;;;;;48.13;27.38;;;;;;;;;;5020032;28;20100;-54
2021/08/15 12:16:53;;;;;;;43.80;25.75;;;;;;;;;;5018148;28;20057;-51
2021/08/15 12:19:18;;;;;;;;;;;;;;;;;;5017739;28;20056;-54
2021/08/15 12:21:44;;;;;;;42.22;25.95;;;;;;;;;;5018420;28;19921;-54
2021/08/15 12:24:15;;;;;;;47.58;26.45;;;;;;;;;;5017976;28;20470;-54
2021/08/15 12:26:40;;;;;;;47.20;27.80;;;;;;;;;;5017318;28;20132;-54
2021/08/15 12:29:26;;;;;;;43.70;26.38;;;;;;;;;;5018612;28;20056;-56
2021/08/15 12:32:03;;;;;;;43.15;25.95;;;;;;;;;;4998414;28;20190;-55
2021/08/15 12:34:29;;;;;;;41.10;26.05;;;;;;;;;;5015520;28;20077;-54
2021/08/15 12:36:55;;;;;;;41.65;26.27;;;;;;;;;;5017776;28;20119;-54
2021/08/15 12:39:30;;;;;;;43.92;27.30;;;;;;;;;;5001495;28;20045;-53
2021/08/15 12:41:56;;;;;;;44.17;24.85;;;;;;;;;;4999756;28;20110;-56
2021/08/15 12:44:23;;;;;;;47.28;26.52;;;;;;;;;;4998225;28;20579;-54
2021/08/15 12:47:15;;;;;;;41.72;26.05;;;;;;;;;;5006801;28;20053;-54
2021/08/15 12:49:45;;;;;;;44.10;25.00;;;;;;;;;;4995529;28;20053;-54
2021/08/15 12:52:13;;;;;;;44.72;25.70;;;;;;;;;;5013203;28;20041;-56
2021/08/15 12:54:57;;;;;;;41.85;26.23;;;;;;;;;;5017760;28;20045;-52
2021/08/15 12:57:23;;;;;;;43.80;25.00;;;;;;;;;;5016781;28;20092;-53
2021/08/15 12:59:49;;;;;;;40.55;25.70;;;;;;;;;;5017741;28;20041;-53
2021/08/15 13:02:14;;;;;;;42.00;25.80;;;;;;;;;;5017375;28;20043;-53
2021/08/15 13:04:40;;;;;;;41.67;25.60;;;;;;;;;;5017551;28;20041;-51
2021/08/15 13:07:06;;;;;;;43.63;26.02;;;;;;;;;;5017815;28;20045;-55
2021/08/15 13:09:32;;;;;;;44.13;25.08;;;;;;;;;;5016964;28;20180;-56
2021/08/15 13:11:57;;;;;;;39.85;23.67;;;;;;;;;;5017722;28;20592;-52
2021/08/15 13:14:23;;;;;;;41.22;24.65;;;;;;;;;;5016680;28;20498;-53
2021/08/15 13:16:49;;;;;;;39.15;24.40;;;;;;;;;;5017376;28;20132;-55
2021/08/15 13:19:15;;;;;;;39.10;25.00;;;;;;;;;;5016881;28;20061;-53
2021/08/15 13:21:40;;;;;;;37.70;23.75;;;;;;;;;;5015884;28;20468;-53
2021/08/15 13:24:06;;;;;;;38.45;22.90;;;;;;;;;;5016531;28;20084;-53
2021/08/15 13:26:32;;;;;;;35.03;22.40;;;;;;;;;;5016173;28;20041;-51
2021/08/15 13:28:58;;;;;;;35.13;22.60;;;;;;;;;;5016248;28;20124;-54
2021/08/15 13:31:23;;;;;;;33.13;21.23;;;;;;;;;;5014775;28;20407;-52
2021/08/15 13:33:49;;;;;;;38.50;21.95;;;;;;;;;;5017287;28;20029;-52
2021/08/15 13:36:15;;;;;;;39.75;23.38;;;;;;;;;;5017153;28;20798;-52
2021/08/15 13:38:41;;;;;;;39.05;22.80;;;;;;;;;;5014767;28;20049;-54
2021/08/15 13:41:06;;;;;;;38.80;23.17;;;;;;;;;;5016440;28;20037;-52
2021/08/15 13:43:33;;;;;;;36.22;22.10;;;;;;;;;;5015676;28;20033;-52
2021/08/15 13:45:58;;;;;;;31.63;20.10;;;;;;;;;;5015223;28;20042;-52
2021/08/15 13:48:24;;;;;;;37.63;22.48;;;;;;;;;;5012251;28;20176;-55
2021/08/15 13:50:50;;;;;;;38.28;22.77;;;;;;;;;;5016449;28;20041;-55
2021/08/15 13:53:16;;;;;;;36.47;23.15;;;;;;;;;;5017234;28;20037;-54
2021/08/15 13:55:42;;;;;;;36.00;22.67;;;;;;;;;;5015376;28;20366;-51
2021/08/15 13:58:10;;;;;;;39.10;22.77;;;;;;;;;;5016526;28;20050;-54
2021/08/15 14:00:36;;;;;;;36.53;22.48;;;;;;;;;;5016042;28;20537;-54
2021/08/15 14:03:02;;;;;;;33.63;22.20;;;;;;;;;;5016708;28;20041;-55
2021/08/15 14:05:28;;;;;;;37.22;21.70;;;;;;;;;;5016266;28;20107;-52
2021/08/15 14:07:54;;;;;;;34.30;22.10;;;;;;;;;;5015380;28;20053;-52
2021/08/15 14:10:19;;;;;;;35.15;21.80;;;;;;;;;;5015393;28;20026;-56
2021/08/15 14:12:45;;;;;;;38.28;21.33;;;;;;;;;;5017326;28;20052;-54
2021/08/15 14:15:11;;;;;;;34.22;21.80;;;;;;;;;;5017711;28;20170;-52
2021/08/15 14:17:37;;;;;;;32.65;20.50;;;;;;;;;;5015566;28;20054;-54
2021/08/15 14:20:03;;;;;;;34.55;20.92;;;;;;;;;;5015695;28;20090;-52
2021/08/15 14:22:29;;;;;;;34.38;21.63;;;;;;;;;;5014887;28;20041;-54
2021/08/15 14:24:55;;;;;;;34.42;21.38;;;;;;;;;;5015963;28;20033;-53
2021/08/15 14:27:23;;;;;;;32.17;20.20;;;;;;;;;;5015036;28;20643;-53